createdAt,value
2023-04-01T00:04:36.174Z,0
2023-04-01T00:09:55.135Z,0
2023-04-01T00:15:13.920Z,0
2023-04-01T00:20:33.154Z,0
2023-04-01T00:25:52.874Z,0
2023-04-01T00:31:11.711Z,0
2023-04-01T00:36:30.885Z,0
2023-04-01T00:41:50.195Z,0
2023-04-01T00:47:09.186Z,0
2023-04-01T00:52:28.792Z,0
2023-04-01T01:03:07.979Z,0
2023-04-01T01:08:27.176Z,0
2023-04-01T01:13:46.338Z,0
2023-04-01T01:19:05.675Z,0
2023-04-01T01:24:25.391Z,0
2023-04-01T01:29:45.022Z,0
2023-04-01T01:35:04.590Z,0
2023-04-01T01:45:42.751Z,0
2023-04-01T01:56:20.793Z,0
2023-04-01T02:01:40.304Z,0
2023-04-01T02:07:00.279Z,0
2023-04-01T02:12:19.916Z,0
2023-04-01T02:17:39.209Z,0
2023-04-01T02:22:58.501Z,0
2023-04-01T02:28:17.467Z,0
2023-04-01T02:33:36.707Z,0
2023-04-01T02:44:15.579Z,0
2023-04-01T02:49:34.361Z,0
2023-04-01T02:54:53.377Z,0
2023-04-01T03:00:12.199Z,0
2023-04-01T03:10:50.829Z,0
2023-04-01T03:16:10.459Z,0
2023-04-01T03:21:29.870Z,0
2023-04-01T03:26:49.417Z,0
2023-04-01T03:32:08.808Z,0
2023-04-01T03:37:28.511Z,0
2023-04-01T03:42:47.837Z,0
2023-04-01T03:48:07.087Z,0
2023-04-01T03:53:26.407Z,0
2023-04-01T03:58:45.563Z,0
2023-04-01T04:04:04.650Z,0
2023-04-01T04:09:24.015Z,0
2023-04-01T04:14:43.400Z,0
2023-04-01T04:20:03.068Z,0
2023-04-01T04:25:22.658Z,0
2023-04-01T04:36:00.861Z,1
2023-04-01T04:41:20.440Z,5
2023-04-01T04:46:39.197Z,10
2023-04-01T04:51:58.371Z,36
2023-04-01T04:57:17.817Z,44
2023-04-01T05:02:36.862Z,110
2023-04-01T05:07:55.796Z,195
2023-04-01T05:13:14.652Z,332
2023-04-01T05:18:33.509Z,719
2023-04-01T05:23:52.900Z,994
2023-04-01T05:29:11.973Z,1440
2023-04-01T05:34:31.656Z,1916
2023-04-01T05:39:50.790Z,1175
2023-04-01T05:45:09.753Z,904
2023-04-01T05:50:28.799Z,1417
2023-04-01T05:55:47.873Z,2090
2023-04-01T06:01:10.047Z,1786
2023-04-01T06:06:25.799Z,2133
2023-04-01T06:11:45.075Z,2423
2023-04-01T06:17:03.967Z,2862
2023-04-01T06:22:23.727Z,2439
2023-04-01T06:27:43.011Z,2154
2023-04-01T06:33:02.081Z,3480
2023-04-01T06:38:21.130Z,3430
2023-04-01T06:43:40.012Z,2865
2023-04-01T06:48:59.694Z,2376
2023-04-01T06:54:19.194Z,2889
2023-04-01T06:59:38.402Z,3108
2023-04-01T07:04:57.687Z,3619
2023-04-01T07:10:17.248Z,4463
2023-04-01T07:15:36.178Z,5157
2023-04-01T07:20:55.057Z,5052
2023-04-01T07:26:14.284Z,4936
2023-04-01T07:36:52.716Z,6032
2023-04-01T07:42:11.725Z,6589
2023-04-01T07:47:31.230Z,7821
2023-04-01T07:52:50.700Z,10088
2023-04-01T07:58:10.181Z,8020
2023-04-01T08:03:30.019Z,7757
2023-04-01T08:08:49.194Z,8210
2023-04-01T08:14:07.975Z,6891
2023-04-01T08:19:26.815Z,7823
2023-04-01T08:24:47.879Z,7145
2023-04-01T08:30:05.444Z,7752
2023-04-01T08:35:24.317Z,6985
2023-04-01T08:40:43.967Z,5737
2023-04-01T08:51:22.318Z,5612
2023-04-01T08:56:41.420Z,6361
2023-04-01T09:02:00.597Z,12974
2023-04-01T09:07:19.746Z,12350
2023-04-01T09:12:38.627Z,14849
2023-04-01T09:17:57.509Z,11750
2023-04-01T09:23:16.945Z,10613
2023-04-01T09:33:55.511Z,11940
2023-04-01T09:39:14.797Z,10443
2023-04-01T09:44:34.557Z,13390
2023-04-01T09:49:54.169Z,15754
2023-04-01T09:55:13.307Z,12352
2023-04-01T10:00:32.466Z,12239
2023-04-01T10:05:51.358Z,9522
2023-04-01T10:11:10.826Z,8754
2023-04-01T10:16:29.852Z,8049
2023-04-01T10:21:48.802Z,8658
2023-04-01T10:27:08.090Z,9739
2023-04-01T10:32:27.867Z,9160
2023-04-01T10:37:47.349Z,8767
2023-04-01T10:43:06.655Z,7982
2023-04-01T10:48:26.061Z,8957
2023-04-01T10:53:44.862Z,7789
2023-04-01T10:59:03.649Z,9516
2023-04-01T11:04:23.063Z,9215
2023-04-01T11:15:01.333Z,8964
2023-04-01T11:20:20.790Z,9182
2023-04-01T11:25:40.062Z,10090
2023-04-01T11:30:58.928Z,8985
2023-04-01T11:36:18.050Z,9546
2023-04-01T11:41:37.609Z,8765
2023-04-01T11:46:56.337Z,9847
2023-04-01T11:52:15.473Z,9636
2023-04-01T11:57:35.300Z,7664
2023-04-01T12:08:12.907Z,8242
2023-04-01T12:13:31.780Z,11906
2023-04-01T12:18:50.829Z,9851
2023-04-01T12:24:09.741Z,7221
2023-04-01T12:29:28.810Z,6721
2023-04-01T12:40:07.372Z,6201
2023-04-01T12:45:26.617Z,7471
2023-04-01T12:56:05.633Z,8096
2023-04-01T13:06:43.935Z,8066
2023-04-01T13:17:22.610Z,5531
2023-04-01T13:22:41.637Z,5970
2023-04-01T13:28:34.121Z,9432
2023-04-01T13:33:52.891Z,8522
2023-04-01T13:39:11.923Z,6455
2023-04-01T13:44:31.619Z,5361
2023-04-01T13:49:50.954Z,5929
2023-04-01T13:55:10.000Z,5087
2023-04-01T14:05:47.784Z,9723
2023-04-01T14:11:06.575Z,8075
2023-04-01T14:16:25.446Z,4544
2023-04-01T14:21:44.611Z,4450
2023-04-01T14:27:03.476Z,4112
2023-04-01T14:32:22.623Z,5460
2023-04-01T14:37:41.659Z,5780
2023-04-01T14:48:19.939Z,4385
2023-04-01T14:53:39.380Z,2258
2023-04-01T14:58:58.980Z,1832
2023-04-01T15:04:18.386Z,1830
2023-04-01T15:09:37.411Z,2005
2023-04-01T15:14:57.145Z,2339
2023-04-01T15:20:16.941Z,2478
2023-04-01T15:25:35.908Z,2457
2023-04-01T15:30:55.135Z,2306
2023-04-01T15:36:14.678Z,2625
2023-04-01T15:41:34.377Z,2526
2023-04-01T15:46:53.826Z,3458
2023-04-01T15:52:13.213Z,2935
2023-04-01T15:57:32.277Z,2877
2023-04-01T16:02:51.854Z,3993
2023-04-01T16:13:30.054Z,4585
2023-04-01T16:18:49.774Z,3727
2023-04-01T16:24:09.074Z,2535
2023-04-01T16:29:28.651Z,1671
2023-04-01T16:34:48.280Z,918
2023-04-01T16:40:08.020Z,945
2023-04-01T16:45:27.081Z,1150
2023-04-01T16:50:46.390Z,1311
2023-04-01T16:56:05.169Z,2692
2023-04-01T17:01:24.695Z,1891
2023-04-01T17:12:03.579Z,839
2023-04-01T17:22:41.361Z,403
2023-04-01T17:28:00.302Z,351
2023-04-01T17:33:19.162Z,220
2023-04-01T17:38:38.498Z,134
2023-04-01T17:43:57.723Z,127
2023-04-01T17:49:16.542Z,67
2023-04-01T17:54:37.154Z,61
2023-04-01T17:59:55.471Z,35
2023-04-01T18:10:34.076Z,5
2023-04-01T18:15:53.404Z,1
2023-04-01T18:21:12.312Z,0
2023-04-01T18:26:31.214Z,0
2023-04-01T18:31:49.999Z,0
2023-04-01T18:37:08.795Z,0
2023-04-01T18:42:27.799Z,0
2023-04-01T18:53:06.751Z,0
2023-04-01T18:58:25.614Z,0
2023-04-01T19:03:44.437Z,0
2023-04-01T19:09:03.590Z,0
2023-04-01T19:14:22.444Z,0
2023-04-01T19:19:42.015Z,0
2023-04-01T19:25:01.363Z,0
2023-04-01T19:30:20.597Z,0
2023-04-01T19:35:39.927Z,0
2023-04-01T19:40:58.642Z,0
2023-04-01T19:46:18.303Z,0
2023-04-01T19:51:37.547Z,0
2023-04-01T19:56:56.561Z,0
2023-04-01T20:02:15.848Z,0
2023-04-01T20:07:35.319Z,0
2023-04-01T20:12:54.649Z,0
2023-04-01T20:18:14.109Z,0
2023-04-01T20:28:52.434Z,0
2023-04-01T20:34:12.146Z,0
2023-04-01T20:39:31.397Z,0
2023-04-01T20:44:50.358Z,0
2023-04-01T20:50:09.462Z,0
2023-04-01T20:55:29.136Z,0
2023-04-01T21:00:48.122Z,0
2023-04-01T21:06:07.759Z,0
2023-04-01T21:11:27.196Z,0
2023-04-01T21:22:05.690Z,0
2023-04-01T21:27:24.920Z,0
2023-04-01T21:32:44.559Z,0
2023-04-01T21:38:03.630Z,0
2023-04-01T21:43:22.394Z,0
2023-04-01T21:48:41.652Z,0
2023-04-01T21:54:00.751Z,0
2023-04-01T21:59:19.645Z,0
2023-04-01T22:04:39.003Z,0
2023-04-01T22:09:58.399Z,0
2023-04-01T22:15:17.897Z,0
2023-04-01T22:20:36.666Z,0
2023-04-01T22:25:58.175Z,0
2023-04-01T22:31:16.066Z,0
2023-04-01T22:36:35.627Z,0
2023-04-01T22:41:55.069Z,0
2023-04-01T22:47:14.399Z,0
2023-04-01T22:52:33.027Z,0
2023-04-01T22:57:51.812Z,0
2023-04-01T23:03:10.839Z,0
2023-04-01T23:08:30.070Z,0
2023-04-01T23:13:49.523Z,0
2023-04-01T23:19:08.868Z,0
2023-04-01T23:24:28.678Z,0
2023-04-01T23:35:06.509Z,0
2023-04-01T23:40:27.035Z,0
2023-04-01T23:45:46.187Z,0
2023-04-01T23:51:05.426Z,0
